Time;durP1;ratioP1;P1;durP2;ratioP2;P2;SDS_P1;SDS_P2;PMS_P1;PMS_P2;Temp;Humidity;BMP_temperature;BMP_pressure;BME280_temperature;BME280_humidity;BME280_pressure;Samples;Min_cycle;Max_cycle;Signal;HPM_P1;HPM_P2
2022/08/07 00:25:03;;;;;;;;;;;;;;;;;;;;;
2022/08/07 03:11:53;;;;;;;;;;;;;;;;;;;;;
2022/08/07 06:37:20;;;;;;;;;;;17.50;99.90;;;;;;6147476;23;19942;-74
2022/08/07 06:40:02;;;;;;;;;;;17.70;99.90;;;;;;6220722;23;19915;-75
2022/08/07 06:46:41;;;;;;;;;;;18.00;99.90;;;;;;6191921;23;20278;-73
2022/08/07 06:52:57;;;;;;;;;;;18.40;99.90;;;;;;6138273;23;19916;-73
2022/08/07 07:06:44;;;;;;;;;;;;;;;;;;;;;
2022/08/07 07:09:22;;;;;;;;;;;19.40;99.90;;;;;;6022961;23;19993;-74
2022/08/07 07:12:22;;;;;;;;;;;19.50;99.90;;;;;;6022361;23;19969;-76
2022/08/07 07:15:22;;;;;;;;;;;19.50;99.90;;;;;;6216346;23;19922;-74
2022/08/07 07:44:51;;;;;;;;;;;20.80;99.90;;;;;;6012806;23;20010;-74
2022/08/07 07:50:41;;;;;;;;;;;21.20;99.90;;;;;;6012985;23;20269;-74
2022/08/07 07:53:08;;;;;;;;;;;21.40;99.90;;;;;;5989251;23;19918;-75
2022/08/07 07:59:09;;;;;;;;;;;21.30;99.90;;;;;;6026841;23;19916;-73
2022/08/07 08:01:37;;;;;;;;;;;21.30;99.90;;;;;;6048071;23;19925;-76
2022/08/07 08:04:03;;;;;;;;;;;21.40;99.90;;;;;;6193011;23;20350;-75
2022/08/07 08:06:39;;;;;;;;;;;;;;;;;;;;;
2022/08/07 08:09:35;;;;;;;;;;;21.10;99.90;;;;;;6217886;23;20274;-80
2022/08/07 08:19:06;;;;;;;;;;;21.50;99.90;;;;;;6142853;23;19920;-81
2022/08/07 08:28:35;;;;;;;;;;;22.10;99.70;;;;;;5961509;23;19925;-83
2022/08/07 08:31:24;;;;;;;;;;;22.60;99.90;;;;;;5968968;23;20011;-83
2022/08/07 08:34:15;;;;;;;;;;;22.60;99.30;;;;;;5998622;24;19956;-80
2022/08/07 08:40:14;;;;;;;;;;;22.80;97.40;;;;;;6067547;23;19921;-76
2022/08/07 08:42:43;;;;;;;;;;;23.00;98.10;;;;;;6043625;23;19992;-74
2022/08/07 08:45:34;;;;;;;;;;;22.80;96.80;;;;;;6067315;23;19920;-77
2022/08/07 08:48:02;;;;;;;;;;;22.60;97.60;;;;;;6105895;23;19917;-74
2022/08/07 08:50:31;;;;;;;;;;;22.70;97.60;;;;;;6155023;23;20391;-74
2022/08/07 08:53:18;;;;;;;;;;;22.80;96.40;;;;;;6180698;23;19958;-75
2022/08/07 08:56:13;;;;;;;;;;;22.70;97.10;;;;;;6191819;23;19916;-83
2022/08/07 08:58:58;;;;;;;;;;;23.00;96.90;;;;;;6212868;23;20007;-78
2022/08/07 09:01:30;;;;;;;;;;;23.10;96.60;;;;;;6191154;23;20338;-81
2022/08/07 09:04:35;;;;;;;;;;;23.10;96.40;;;;;;6190672;23;19916;-75
2022/08/07 09:11:01;;;;;;;;;;;;;;;;;;;;;
2022/08/07 09:24:11;;;;;;;;;;;23.90;94.30;;;;;;6158024;23;19924;-73
2022/08/07 09:26:43;;;;;;;;;;;23.70;93.00;;;;;;6134126;23;19995;-72
2022/08/07 09:29:29;;;;;;;;;;;23.30;93.40;;;;;;6193622;23;19923;-78
2022/08/07 09:32:22;;;;;;;;;;;23.00;94.10;;;;;;6204099;23;19923;-78
2022/08/07 09:35:07;;;;;;;;;;;23.20;93.80;;;;;;6194706;23;20037;-78
2022/08/07 09:37:37;;;;;;;;;;;23.10;93.90;;;;;;6219265;23;19927;-74
2022/08/07 09:40:06;;;;;;;;;;;23.00;93.50;;;;;;6219745;23;20250;-76
2022/08/07 09:42:51;;;;;;;;;;;23.00;93.60;;;;;;6194223;23;19994;-67
2022/08/07 09:45:36;;;;;;;;;;;23.10;94.10;;;;;;6246257;23;19920;-79
2022/08/07 09:48:15;;;;;;;;;;;23.40;94.40;;;;;;6219199;23;19923;-75
2022/08/07 09:50:49;;;;;;;;;;;23.40;93.90;;;;;;6193969;23;19919;-74
2022/08/07 09:53:44;;;;;;;;;;;23.70;92.90;;;;;;6219159;23;20414;-79
2022/08/07 09:56:09;;;;;;;;;;;23.90;91.50;;;;;;6218882;23;20242;-74
2022/08/07 09:58:37;;;;;;;;;;;23.90;92.70;;;;;;6219491;23;19927;-75
2022/08/07 10:04:23;;;;;;;;;;;24.20;92.10;;;;;;6196903;23;19959;-74
2022/08/07 10:07:09;;;;;;;;;;;24.10;91.10;;;;;;6218565;23;19923;-70
2022/08/07 10:09:45;;;;;;;;;;;24.10;91.10;;;;;;6229052;23;20346;-69
2022/08/07 10:12:16;;;;;;;;;;;24.30;91.20;;;;;;6193904;23;20377;-70
2022/08/07 10:14:50;;;;;;;;;;;24.40;90.60;;;;;;6245504;23;20286;-77
2022/08/07 10:17:35;;;;;;;;;;;24.50;90.20;;;;;;6218441;23;19920;-76
2022/08/07 10:27:00;;;;;;;;;;;24.10;89.60;;;;;;6218076;23;19920;-80
2022/08/07 10:29:31;;;;;;;;;;;24.20;87.60;;;;;;6193828;23;19926;-77
2022/08/07 10:32:27;;;;;;;;;;;24.00;86.90;;;;;;6195582;23;19939;-73
2022/08/07 10:35:14;;;;;;;;;;;23.70;87.80;;;;;;6162835;23;19950;-78
2022/08/07 10:37:51;;;;;;;;;;;23.90;87.00;;;;;;6195905;23;19916;-75
2022/08/07 10:40:24;;;;;;;;;;;24.00;86.10;;;;;;6195982;23;19938;-77
2022/08/07 10:43:22;;;;;;;;;;;24.10;83.90;;;;;;6220357;23;19915;-82
2022/08/07 10:46:22;;;;;;;;;;;24.10;82.20;;;;;;6192160;23;20259;-82
2022/08/07 10:49:11;;;;;;;;;;;24.40;83.20;;;;;;6220656;23;20291;-78
2022/08/07 10:58:47;;;;;;;;;;;24.40;82.00;;;;;;6160818;23;19917;-79
2022/08/07 11:08:38;;;;;;;;;;;24.50;79.80;;;;;;6246743;22;19955;-80
2022/08/07 11:11:26;;;;;;;;;;;24.50;79.60;;;;;;6195360;23;19915;-81
2022/08/07 11:13:57;;;;;;;;;;;24.50;79.40;;;;;;6197082;23;20140;-75
2022/08/07 11:16:25;;;;;;;;;;;24.50;81.50;;;;;;6224789;23;19919;-76
2022/08/07 11:19:00;;;;;;;;;;;24.30;80.20;;;;;;6197518;23;19915;-75
2022/08/07 11:21:25;;;;;;;;;;;24.40;77.70;;;;;;6195255;22;19916;-78
2022/08/07 11:23:56;;;;;;;;;;;24.50;78.50;;;;;;6220082;23;19926;-75
2022/08/07 11:26:25;;;;;;;;;;;24.60;78.30;;;;;;6194666;23;19919;-74
2022/08/07 11:29:15;;;;;;;;;;;24.70;78.00;;;;;;6194834;23;19922;-72
2022/08/07 11:31:50;;;;;;;;;;;24.50;77.90;;;;;;6220053;22;19915;-71
2022/08/07 11:34:27;;;;;;;;;;;24.70;78.00;;;;;;6219521;23;19916;-74
2022/08/07 11:37:02;;;;;;;;;;;24.30;75.50;;;;;;6219287;23;19949;-74
2022/08/07 11:39:31;;;;;;;;;;;24.50;78.80;;;;;;6194582;23;19920;-72
2022/08/07 11:42:16;;;;;;;;;;;24.70;78.80;;;;;;6219532;23;19915;-79
2022/08/07 11:44:42;;;;;;;;;;;24.70;77.40;;;;;;6194589;23;19919;-74
2022/08/07 11:47:17;;;;;;;;;;;24.70;78.20;;;;;;6246573;23;19927;-76
2022/08/07 11:50:00;;;;;;;;;;;24.90;78.30;;;;;;6195483;23;19947;-84
2022/08/07 11:52:47;;;;;;;;;;;25.20;77.40;;;;;;6195067;23;19971;-76
2022/08/07 11:55:39;;;;;;;;;;;25.30;78.10;;;;;;6220832;23;19916;-76
2022/08/07 11:58:14;;;;;;;;;;;25.30;77.00;;;;;;6197664;23;20372;-77
2022/08/07 12:00:46;;;;;;;;;;;24.90;77.90;;;;;;6218664;23;20326;-76
2022/08/07 12:03:46;;;;;;;;;;;24.80;78.50;;;;;;6198622;23;19915;-76
2022/08/07 12:06:23;;;;;;;;;;;24.70;76.80;;;;;;6160528;23;19920;-76
2022/08/07 12:09:06;;;;;;;;;;;24.80;78.40;;;;;;6184246;23;19927;-76
2022/08/07 12:11:41;;;;;;;;;;;25.20;79.40;;;;;;6183319;23;20398;-75
2022/08/07 12:14:16;;;;;;;;;;;25.50;78.30;;;;;;6184667;23;19947;-75
2022/08/07 12:16:57;;;;;;;;;;;25.60;77.80;;;;;;6136699;23;19922;-74
2022/08/07 12:19:42;;;;;;;;;;;25.40;78.00;;;;;;6160355;23;19943;-75
2022/08/07 12:22:27;;;;;;;;;;;25.30;78.00;;;;;;6137260;23;19963;-75
2022/08/07 12:27:42;;;;;;;;;;;25.30;79.10;;;;;;6159421;23;19924;-75
2022/08/07 12:30:09;;;;;;;;;;;25.20;81.10;;;;;;6135005;23;20354;-76
2022/08/07 12:32:38;;;;;;;;;;;25.00;80.50;;;;;;6159496;23;19917;-75
2022/08/07 12:35:05;;;;;;;;;;;24.60;79.70;;;;;;6159752;23;19916;-76
2022/08/07 12:37:34;;;;;;;;;;;24.50;81.40;;;;;;6175326;23;19916;-77
2022/08/07 12:40:08;;;;;;;;;;;24.90;81.00;;;;;;6197545;23;19963;-75
2022/08/07 12:42:35;;;;;;;;;;;25.30;81.70;;;;;;6195640;23;19915;-76
2022/08/07 12:45:09;;;;;;;;;;;25.30;80.00;;;;;;6221298;23;19915;-77
2022/08/07 12:47:38;;;;;;;;;;;25.10;78.40;;;;;;6220468;23;19924;-78
2022/08/07 12:50:09;;;;;;;;;;;25.20;80.10;;;;;;6221187;23;19994;-78
2022/08/07 12:52:40;;;;;;;;;;;25.30;79.60;;;;;;6221007;23;19915;-77
2022/08/07 12:55:11;;;;;;;;;;;25.40;80.30;;;;;;6221067;23;19915;-74
2022/08/07 12:57:38;;;;;;;;;;;25.50;79.90;;;;;;6248049;23;20338;-74
2022/08/07 13:00:08;;;;;;;;;;;25.50;79.20;;;;;;6221159;23;19990;-78
2022/08/07 13:02:52;;;;;;;;;;;25.10;78.50;;;;;;6195928;23;19965;-76
2022/08/07 13:05:37;;;;;;;;;;;25.00;78.50;;;;;;6195932;23;20331;-76
2022/08/07 13:08:22;;;;;;;;;;;25.20;77.60;;;;;;6195933;23;19919;-76
2022/08/07 13:10:58;;;;;;;;;;;25.10;74.90;;;;;;6248353;23;19970;-73
2022/08/07 13:13:27;;;;;;;;;;;25.30;76.80;;;;;;6247528;22;19946;-71
2022/08/07 13:16:02;;;;;;;;;;;25.20;77.60;;;;;;6195787;23;19923;-71
2022/08/07 13:18:51;;;;;;;;;;;24.70;77.90;;;;;;6220565;23;19916;-71
2022/08/07 13:21:29;;;;;;;;;;;24.50;77.10;;;;;;6205014;23;19923;-71
2022/08/07 13:24:13;;;;;;;;;;;24.90;79.90;;;;;;6247729;23;20002;-72
2022/08/07 13:26:50;;;;;;;;;;;25.00;76.50;;;;;;6220841;23;19966;-72
2022/08/07 13:29:19;;;;;;;;;;;25.20;78.40;;;;;;6195894;23;19925;-70
2022/08/07 13:31:50;;;;;;;;;;;25.30;77.80;;;;;;6220630;22;20242;-70
2022/08/07 13:34:24;;;;;;;;;;;25.40;78.20;;;;;;6220534;23;20327;-71
2022/08/07 13:36:53;;;;;;;;;;;25.60;76.00;;;;;;6195676;23;19919;-71
2022/08/07 13:39:31;;;;;;;;;;;25.60;76.00;;;;;;6195487;23;20377;-74
2022/08/07 13:41:57;;;;;;;;;;;25.80;75.90;;;;;;6220775;23;20285;-73
2022/08/07 13:44:26;;;;;;;;;;;25.80;77.60;;;;;;6247420;23;19927;-71
2022/08/07 13:46:57;;;;;;;;;;;25.80;78.10;;;;;;6220760;23;19920;-72
2022/08/07 13:49:24;;;;;;;;;;;25.30;78.30;;;;;;6220788;23;19947;-71
2022/08/07 13:51:56;;;;;;;;;;;25.10;79.80;;;;;;6220437;22;19927;-73
2022/08/07 13:54:27;;;;;;;;;;;24.90;80.70;;;;;;6220412;23;19991;-72
2022/08/07 13:56:56;;;;;;;;;;;24.60;82.40;;;;;;6247244;23;19916;-71
2022/08/07 13:59:25;;;;;;;;;;;24.40;83.40;;;;;;6220139;23;19973;-70
2022/08/07 14:02:03;;;;;;;;;;;24.40;84.20;;;;;;6220139;22;19922;-72
2022/08/07 14:04:29;;;;;;;;;;;24.40;83.90;;;;;;6195542;23;19928;-72
2022/08/07 14:06:55;;;;;;;;;;;24.40;85.00;;;;;;6220700;23;20414;-71
2022/08/07 14:09:32;;;;;;;;;;;24.50;84.90;;;;;;6219966;23;19920;-75
2022/08/07 14:12:02;;;;;;;;;;;24.70;84.70;;;;;;6216979;23;19999;-75
2022/08/07 14:14:30;;;;;;;;;;;24.70;84.40;;;;;;6195352;23;20019;-77
2022/08/07 14:17:00;;;;;;;;;;;24.60;83.40;;;;;;6220067;23;19973;-76
2022/08/07 14:19:37;;;;;;;;;;;24.20;82.80;;;;;;6195057;23;20330;-76
2022/08/07 14:22:07;;;;;;;;;;;24.10;83.80;;;;;;6219384;23;19922;-77
2022/08/07 14:24:40;;;;;;;;;;;24.00;83.00;;;;;;6220139;23;20041;-76
2022/08/07 14:27:10;;;;;;;;;;;24.10;85.40;;;;;;6219812;23;19923;-78
2022/08/07 14:29:39;;;;;;;;;;;24.10;85.00;;;;;;6194752;23;19946;-73
2022/08/07 14:32:06;;;;;;;;;;;24.30;84.80;;;;;;6194451;23;19987;-73
2022/08/07 14:34:33;;;;;;;;;;;24.60;83.80;;;;;;6220243;23;19946;-73
2022/08/07 14:36:59;;;;;;;;;;;24.80;83.80;;;;;;6220126;23;19920;-75
2022/08/07 14:39:25;;;;;;;;;;;24.80;82.80;;;;;;6219569;23;20286;-77
2022/08/07 14:41:54;;;;;;;;;;;24.80;82.80;;;;;;6219717;22;19919;-75
2022/08/07 14:44:26;;;;;;;;;;;24.70;83.30;;;;;;6219777;23;19927;-74
2022/08/07 14:46:54;;;;;;;;;;;24.60;81.90;;;;;;6194823;23;19920;-74
2022/08/07 14:49:23;;;;;;;;;;;24.30;84.50;;;;;;6193549;23;19954;-75
2022/08/07 14:51:49;;;;;;;;;;;24.20;85.20;;;;;;6219525;22;19951;-77
2022/08/07 14:54:17;;;;;;;;;;;23.90;87.70;;;;;;6219316;23;19916;-75
2022/08/07 15:10:27;;;;;;;;;;;25.30;84.50;;;;;;6219169;23;19963;-75
2022/08/07 15:13:22;;;;;;;;;;;25.00;83.70;;;;;;6219143;23;20317;-76
2022/08/07 15:15:50;;;;;;;;;;;25.30;86.10;;;;;;6215676;23;20380;-75
2022/08/07 15:18:19;;;;;;;;;;;25.60;86.60;;;;;;6220487;23;19915;-73
2022/08/07 15:20:46;;;;;;;;;;;26.00;85.30;;;;;;6220229;23;19923;-71
2022/08/07 15:23:13;;;;;;;;;;;25.70;84.90;;;;;;6220576;23;19920;-77
2022/08/07 15:25:43;;;;;;;;;;;25.30;84.20;;;;;;6220968;23;20002;-74
2022/08/07 15:28:09;;;;;;;;;;;25.40;86.60;;;;;;6221691;23;19958;-76
2022/08/07 15:30:35;;;;;;;;;;;25.70;86.30;;;;;;6221280;23;19920;-74
2022/08/07 15:33:02;;;;;;;;;;;26.10;84.50;;;;;;6196176;23;19994;-74
2022/08/07 15:35:30;;;;;;;;;;;25.80;84.70;;;;;;6196159;23;19920;-72
2022/08/07 15:37:57;;;;;;;;;;;25.90;84.70;;;;;;6196569;23;20047;-71
2022/08/07 15:40:33;;;;;;;;;;;26.40;84.20;;;;;;6221565;23;19992;-77
2022/08/07 15:43:04;;;;;;;;;;;26.30;84.50;;;;;;6196347;23;20357;-75
2022/08/07 15:45:31;;;;;;;;;;;25.90;83.90;;;;;;6196404;23;20246;-76
2022/08/07 16:17:17;;;;;;;;;;;25.30;83.70;;;;;;6185047;23;19914;-78
2022/08/07 16:23:05;;;;;;;;;;;25.30;83.40;;;;;;6165166;23;20331;-78
2022/08/07 16:25:54;;;;;;;;;;;25.10;83.30;;;;;;6160162;23;19920;-75
2022/08/07 16:28:38;;;;;;;;;;;25.00;82.30;;;;;;6183375;23;19982;-84
2022/08/07 16:31:21;;;;;;;;;;;24.50;84.60;;;;;;6196306;23;19916;-79
2022/08/07 16:33:47;;;;;;;;;;;24.00;86.80;;;;;;6219710;23;19990;-79
2022/08/07 16:36:17;;;;;;;;;;;23.60;89.10;;;;;;6195741;23;19950;-79
2022/08/07 16:39:10;;;;;;;;;;;23.40;89.10;;;;;;6195416;23;19915;-79
2022/08/07 16:41:42;;;;;;;;;;;23.00;90.40;;;;;;6196143;23;19915;-79
2022/08/07 16:44:30;;;;;;;;;;;22.80;90.70;;;;;;6195652;23;19919;-78
2022/08/07 16:47:16;;;;;;;;;;;22.60;91.00;;;;;;6221311;23;19916;-79
2022/08/07 16:50:01;;;;;;;;;;;22.50;91.50;;;;;;6196616;23;19922;-79
2022/08/07 16:52:45;;;;;;;;;;;22.30;91.50;;;;;;6195735;23;19922;-70
2022/08/07 16:55:30;;;;;;;;;;;22.10;91.30;;;;;;6196269;23;19946;-77
2022/08/07 16:58:02;;;;;;;;;;;22.00;91.90;;;;;;6195928;23;19922;-79
2022/08/07 17:00:37;;;;;;;;;;;21.90;92.10;;;;;;6221080;23;19919;-77
2022/08/07 17:03:16;;;;;;;;;;;21.80;91.90;;;;;;6195532;23;19919;-78
2022/08/07 17:05:58;;;;;;;;;;;21.70;92.70;;;;;;6196278;23;19955;-78
2022/08/07 17:08:33;;;;;;;;;;;21.50;92.60;;;;;;6221366;23;19922;-78
2022/08/07 17:11:00;;;;;;;;;;;21.40;92.70;;;;;;6195827;23;19916;-78
2022/08/07 17:13:29;;;;;;;;;;;21.30;93.10;;;;;;6195018;23;20299;-77
2022/08/07 17:16:06;;;;;;;;;;;21.20;93.70;;;;;;6196144;23;19942;-78
2022/08/07 17:18:37;;;;;;;;;;;21.10;93.50;;;;;;6196196;23;19923;-78
2022/08/07 17:21:03;;;;;;;;;;;21.00;93.90;;;;;;6221088;23;19951;-75
2022/08/07 17:23:48;;;;;;;;;;;20.90;94.00;;;;;;6166763;23;19926;-79
2022/08/07 17:26:29;;;;;;;;;;;20.90;93.80;;;;;;6195633;23;19919;-78
2022/08/07 17:29:24;;;;;;;;;;;20.80;94.50;;;;;;6194835;23;19947;-77
2022/08/07 17:32:00;;;;;;;;;;;20.60;94.40;;;;;;6177519;23;19926;-78
2022/08/07 17:34:39;;;;;;;;;;;20.60;94.50;;;;;;6221088;23;19922;-76
2022/08/07 17:37:25;;;;;;;;;;;20.50;94.60;;;;;;6197302;23;19970;-82
2022/08/07 17:40:41;;;;;;;;;;;20.40;94.80;;;;;;6205715;23;19915;-82
2022/08/07 17:50:10;;;;;;;;;;;20.10;95.40;;;;;;6243279;22;20327;-80
2022/08/07 17:53:00;;;;;;;;;;;20.10;95.50;;;;;;6222331;23;19954;-79
2022/08/07 17:55:37;;;;;;;;;;;20.10;95.80;;;;;;6195993;23;19920;-79
2022/08/07 17:58:26;;;;;;;;;;;20.00;96.00;;;;;;6194283;23;20383;-81
2022/08/07 18:00:56;;;;;;;;;;;19.90;96.10;;;;;;6179121;23;19938;-76
2022/08/07 18:24:47;;;;;;;;;;;19.40;98.10;;;;;;6119552;23;19995;-79
2022/08/07 18:31:10;;;;;;;;;;;19.20;98.70;;;;;;6124640;23;19965;-77
2022/08/07 18:33:56;;;;;;;;;;;19.10;99.20;;;;;;6076343;23;19917;-77
2022/08/07 18:36:41;;;;;;;;;;;19.00;99.60;;;;;;6220656;23;19919;-79
2022/08/07 18:39:29;;;;;;;;;;;19.00;99.90;;;;;;6195269;23;20281;-81
2022/08/07 18:42:15;;;;;;;;;;;18.90;99.90;;;;;;6195416;23;19937;-84
2022/08/07 18:45:12;;;;;;;;;;;18.90;99.90;;;;;;6219827;23;20022;-78
2022/08/07 18:48:04;;;;;;;;;;;18.80;99.90;;;;;;6184133;23;19917;-74
2022/08/07 18:50:48;;;;;;;;;;;18.70;99.90;;;;;;6134085;23;19923;-80
2022/08/07 18:53:19;;;;;;;;;;;18.70;99.90;;;;;;6159043;23;19956;-75
2022/08/07 18:56:22;;;;;;;;;;;18.60;99.90;;;;;;6158725;23;19999;-82
2022/08/07 19:03:12;;;;;;;;;;;;;;;;;;;;;
2022/08/07 19:10:08;;;;;;;;;;;;;;;;;;;;;
2022/08/07 19:16:03;;;;;;;;;;;17.90;99.90;;;;;;6073079;23;19996;-83
2022/08/07 19:22:44;;;;;;;;;;;17.80;99.90;;;;;;6235350;23;20383;-83
2022/08/07 19:28:33;;;;;;;;;;;17.70;99.90;;;;;;6152352;23;19920;-80
2022/08/07 19:31:24;;;;;;;;;;;17.60;99.90;;;;;;6206013;23;20254;-77
2022/08/07 19:33:52;;;;;;;;;;;17.50;99.90;;;;;;6194140;23;19927;-81
2022/08/07 19:36:19;;;;;;;;;;;17.50;99.90;;;;;;6193292;23;19915;-79
2022/08/07 19:38:46;;;;;;;;;;;17.40;99.90;;;;;;6193404;23;20334;-77
2022/08/07 19:44:41;;;;;;;;;;;17.20;99.90;;;;;;6119959;23;19944;-77
2022/08/07 19:47:30;;;;;;;;;;;17.20;99.90;;;;;;6118698;23;19922;-83
2022/08/07 19:50:05;;;;;;;;;;;17.10;99.90;;;;;;6218894;23;20407;-81
2022/08/07 19:52:31;;;;;;;;;;;17.00;99.90;;;;;;6191465;22;19951;-74
2022/08/07 19:55:01;;;;;;;;;;;16.90;99.90;;;;;;6217953;23;19924;-81
2022/08/07 19:57:49;;;;;;;;;;;16.80;99.90;;;;;;6193703;23;19927;-79
2022/08/07 20:00:24;;;;;;;;;;;16.90;99.90;;;;;;6193136;23;20243;-78
2022/08/07 20:02:59;;;;;;;;;;;16.70;99.90;;;;;;6191467;23;19916;-81
2022/08/07 20:05:28;;;;;;;;;;;16.80;99.90;;;;;;6193259;23;19920;-80
2022/08/07 20:08:14;;;;;;;;;;;16.80;99.90;;;;;;6193291;23;19915;-82
2022/08/07 20:10:42;;;;;;;;;;;16.70;99.90;;;;;;6191521;23;19916;-77
2022/08/07 20:13:13;;;;;;;;;;;16.60;99.90;;;;;;6168204;23;20322;-77
2022/08/07 20:16:02;;;;;;;;;;;16.60;99.90;;;;;;6219235;23;19920;-79
2022/08/07 20:46:31;;;;;;;;;;;;;;;;;;;;;
2022/08/07 22:07:51;;;;;;;;;;;14.90;99.90;;;;;;6241921;22;19946;-80
2022/08/07 22:14:28;;;;;;;;;;;14.70;99.90;;;;;;6177226;23;20287;-78
2022/08/07 22:17:43;;;;;;;;;;;;;;;;;;;;;
2022/08/07 22:21:01;;;;;;;;;;;14.70;99.90;;;;;;6216111;23;19916;-80
2022/08/07 22:34:48;;;;;;;;;;;14.80;99.90;;;;;;6066245;23;19925;-79
2022/08/07 22:38:22;;;;;;;;;;;;;;;;;;;;;
2022/08/07 22:41:31;;;;;;;;;;;15.00;99.90;;;;;;6098799;23;19964;-79
2022/08/07 22:48:04;;;;;;;;;;;15.10;99.90;;;;;;6031548;23;19918;-78
2022/08/07 22:51:07;;;;;;;;;;;15.20;99.90;;;;;;6073641;23;19939;-79
2022/08/07 22:54:19;;;;;;;;;;;15.20;99.90;;;;;;6083506;23;19940;-79
2022/08/07 22:57:21;;;;;;;;;;;15.20;99.90;;;;;;6065970;23;19985;-80
2022/08/07 23:04:05;;;;;;;;;;;15.20;99.90;;;;;;5952319;24;19926;-79
2022/08/07 23:10:28;;;;;;;;;;;;;;;;;;;;;
2022/08/07 23:13:39;;;;;;;;;;;14.90;99.90;;;;;;6002432;23;20030;-80
2022/08/07 23:16:59;;;;;;;;;;;14.90;99.90;;;;;;6031533;23;19925;-80
2022/08/07 23:26:55;;;;;;;;;;;14.80;99.90;;;;;;6009119;23;20382;-80
2022/08/07 23:30:08;;;;;;;;;;;14.80;99.90;;;;;;6038712;23;19924;-79
2022/08/07 23:47:26;;;;;;;;;;;;;;;;;;;;;
2022/08/07 23:57:41;;;;;;;;;;;14.20;99.90;;;;;;6049652;23;20331;-80
